createdAt,value
2022-10-07T00:00:06.003Z,21.71
2022-10-07T00:01:06.024Z,21.75
2022-10-07T00:02:05.988Z,21.73
2022-10-07T00:03:05.975Z,21.66
2022-10-07T00:04:05.970Z,21.74
2022-10-07T00:05:05.956Z,21.81
2022-10-07T00:06:05.946Z,21.68
2022-10-07T00:07:05.936Z,21.63
2022-10-07T00:08:05.927Z,21.73
2022-10-07T00:09:05.919Z,21.67
2022-10-07T00:10:05.915Z,21.67
2022-10-07T00:11:06.048Z,21.71
2022-10-07T00:12:05.895Z,21.58
2022-10-07T00:13:05.886Z,21.63
2022-10-07T00:14:05.877Z,21.64
2022-10-07T00:15:05.865Z,21.59
2022-10-07T00:16:05.989Z,21.61
2022-10-07T00:17:05.952Z,21.59
2022-10-07T00:18:05.839Z,21.66
2022-10-07T00:19:05.836Z,21.68
2022-10-07T00:20:05.831Z,21.64
2022-10-07T00:21:05.817Z,21.49
2022-10-07T00:22:05.806Z,21.52
2022-10-07T00:23:05.798Z,21.49
2022-10-07T00:24:05.788Z,21.53
2022-10-07T00:25:05.782Z,21.51
2022-10-07T00:26:05.770Z,21.58
2022-10-07T00:27:05.769Z,21.51
2022-10-07T00:28:05.813Z,21.51
2022-10-07T00:29:05.746Z,21.53
2022-10-07T00:30:05.733Z,21.48
2022-10-07T00:31:05.782Z,21.45
2022-10-07T00:32:05.720Z,21.43
2022-10-07T00:33:05.710Z,21.38
2022-10-07T00:34:05.697Z,21.46
2022-10-07T00:35:05.694Z,21.45
2022-10-07T00:36:05.691Z,21.49
2022-10-07T00:37:05.679Z,21.58
2022-10-07T00:38:05.673Z,21.52
2022-10-07T00:39:05.776Z,21.53
2022-10-07T00:40:05.654Z,21.53
2022-10-07T00:41:05.642Z,21.53
2022-10-07T00:42:05.638Z,21.46
2022-10-07T00:43:05.620Z,21.38
2022-10-07T00:44:05.617Z,21.46
2022-10-07T00:45:05.601Z,21.38
2022-10-07T00:46:05.712Z,21.40
2022-10-07T00:47:05.593Z,21.45
2022-10-07T00:48:05.584Z,21.48
2022-10-07T00:49:05.572Z,21.46
2022-10-07T00:50:05.563Z,21.40
2022-10-07T00:51:05.550Z,21.48
2022-10-07T00:52:05.551Z,21.49
2022-10-07T00:53:05.558Z,21.40
2022-10-07T00:54:05.538Z,21.51
2022-10-07T00:55:05.517Z,21.53
2022-10-07T00:56:05.510Z,21.53
2022-10-07T00:57:05.497Z,21.48
2022-10-07T00:58:05.496Z,21.45
2022-10-07T00:59:05.491Z,21.37
2022-10-07T01:00:05.480Z,21.37
2022-10-07T01:01:05.498Z,21.33
2022-10-07T01:02:05.521Z,21.34
2022-10-07T01:03:05.445Z,21.27
2022-10-07T01:04:05.442Z,21.24
2022-10-07T01:05:05.433Z,21.26
2022-10-07T01:06:05.420Z,21.16
2022-10-07T01:07:05.408Z,21.13
2022-10-07T01:08:05.405Z,21.22
2022-10-07T01:09:05.396Z,21.15
2022-10-07T01:10:05.484Z,21.11
2022-10-07T01:11:05.370Z,21.15
2022-10-07T01:12:05.370Z,21.18
2022-10-07T01:13:05.361Z,21.12
2022-10-07T01:14:05.343Z,21.28
2022-10-07T01:15:05.335Z,21.12
2022-10-07T01:16:05.329Z,21.11
2022-10-07T01:17:05.379Z,21.12
2022-10-07T01:18:05.315Z,21.11
2022-10-07T01:19:05.303Z,21.13
2022-10-07T01:20:05.292Z,21.13
2022-10-07T01:21:05.282Z,20.96
2022-10-07T01:22:05.271Z,21.12
2022-10-07T01:23:05.262Z,21.05
2022-10-07T01:24:05.255Z,21.01
2022-10-07T01:25:05.245Z,21.05
2022-10-07T01:26:05.243Z,21.12
2022-10-07T01:27:05.223Z,21.03
2022-10-07T01:28:05.268Z,21.01
2022-10-07T01:29:05.212Z,20.96
2022-10-07T01:30:05.302Z,21.00
2022-10-07T01:31:05.324Z,20.97
2022-10-07T01:32:05.178Z,20.85
2022-10-07T01:33:05.171Z,20.78
2022-10-07T01:34:05.163Z,20.71
2022-10-07T01:35:05.148Z,20.73
2022-10-07T01:36:05.149Z,20.71
2022-10-07T01:37:05.133Z,20.79
2022-10-07T01:38:05.131Z,20.78
2022-10-07T01:39:05.118Z,20.75
2022-10-07T01:40:05.113Z,20.85
2022-10-07T01:41:05.097Z,20.81
2022-10-07T01:42:05.089Z,20.81
2022-10-07T01:43:05.082Z,20.87
2022-10-07T01:44:05.075Z,20.90
2022-10-07T01:45:05.164Z,20.94
2022-10-07T01:46:05.116Z,20.87
2022-10-07T01:47:05.038Z,21.00
2022-10-07T01:48:05.035Z,21.01
2022-10-07T01:49:05.024Z,20.98
2022-10-07T01:50:05.094Z,20.83
2022-10-07T01:51:05.001Z,20.90
2022-10-07T01:52:04.999Z,20.79
2022-10-07T01:53:04.986Z,20.82
2022-10-07T01:54:04.977Z,20.82
2022-10-07T01:55:05.068Z,20.85
2022-10-07T01:56:06.177Z,20.85
2022-10-07T01:57:04.949Z,20.82
2022-10-07T01:58:04.943Z,20.83
2022-10-07T01:59:04.928Z,20.76
2022-10-07T02:00:04.997Z,20.69
2022-10-07T02:01:04.969Z,20.76
2022-10-07T02:02:04.909Z,20.83
2022-10-07T02:03:04.894Z,20.73
2022-10-07T02:04:05.023Z,20.73
2022-10-07T02:05:04.879Z,20.71
2022-10-07T02:06:04.968Z,20.79
2022-10-07T02:07:04.860Z,20.83
2022-10-07T02:08:04.853Z,20.82
2022-10-07T02:09:04.838Z,20.83
2022-10-07T02:10:04.832Z,20.78
2022-10-07T02:11:04.821Z,20.85
2022-10-07T02:12:04.810Z,20.85
2022-10-07T02:13:04.804Z,20.83
2022-10-07T02:14:04.811Z,20.78
2022-10-07T02:15:04.787Z,20.85
2022-10-07T02:16:04.834Z,20.85
2022-10-07T02:17:04.764Z,20.88
2022-10-07T02:18:04.759Z,20.87
2022-10-07T02:19:04.751Z,20.83
2022-10-07T02:20:04.746Z,20.85
2022-10-07T02:21:04.727Z,20.78
2022-10-07T02:22:04.718Z,20.85
2022-10-07T02:23:04.709Z,20.83
2022-10-07T02:24:04.702Z,20.83
2022-10-07T02:25:04.690Z,20.87
2022-10-07T02:26:04.682Z,20.88
2022-10-07T02:27:04.743Z,20.98
2022-10-07T02:28:04.686Z,21.03
2022-10-07T02:29:04.658Z,20.98
2022-10-07T02:30:04.651Z,21.09
2022-10-07T02:31:04.698Z,21.11
2022-10-07T02:32:04.631Z,21.13
2022-10-07T02:33:04.620Z,21.18
2022-10-07T02:34:04.610Z,21.08
2022-10-07T02:35:04.603Z,21.15
2022-10-07T02:36:04.594Z,21.11
2022-10-07T02:37:04.581Z,-40.00
2022-10-07T02:38:04.574Z,-40.00
2022-10-07T02:39:04.565Z,-40.00
2022-10-07T02:40:07.159Z,-40.00
2022-10-07T02:41:04.546Z,-40.00
2022-10-07T02:42:04.533Z,-40.00
2022-10-07T02:43:04.624Z,-40.00
2022-10-07T02:44:04.517Z,-40.00
2022-10-07T02:45:04.513Z,-40.00
2022-10-07T02:46:04.568Z,-40.00
2022-10-07T02:47:04.503Z,-40.00
2022-10-07T02:48:04.487Z,-40.00
2022-10-07T02:49:04.477Z,-40.00
2022-10-07T02:50:04.466Z,-40.00
2022-10-07T02:51:04.459Z,-40.00
2022-10-07T02:52:04.448Z,-40.00
2022-10-07T02:53:04.534Z,-40.00
2022-10-07T02:54:04.435Z,-40.00
2022-10-07T02:55:04.431Z,-40.00
2022-10-07T02:56:04.417Z,-40.00
2022-10-07T02:57:04.404Z,-40.00
2022-10-07T02:58:04.395Z,-40.00
2022-10-07T02:59:04.385Z,-40.00
2022-10-07T03:00:08.602Z,-40.00
2022-10-07T03:01:04.363Z,-40.00
2022-10-07T03:02:04.425Z,-40.00
2022-10-07T03:03:04.449Z,-40.00
2022-10-07T03:04:04.411Z,-40.00
2022-10-07T03:05:04.336Z,-40.00
2022-10-07T03:06:04.325Z,-40.00
2022-10-07T03:07:04.312Z,-40.00
2022-10-07T03:08:04.305Z,-40.00
2022-10-07T03:09:04.297Z,-40.00
2022-10-07T03:10:04.288Z,-40.00
2022-10-07T03:11:04.279Z,-40.00
2022-10-07T03:12:04.270Z,-40.00
2022-10-07T03:13:04.359Z,-40.00
2022-10-07T03:14:04.250Z,-40.00
2022-10-07T03:15:04.240Z,-40.00
2022-10-07T03:16:04.265Z,-40.00
2022-10-07T03:17:04.219Z,-40.00
2022-10-07T03:18:04.214Z,-40.00
2022-10-07T03:19:04.204Z,-40.00
2022-10-07T03:20:04.197Z,-40.00
2022-10-07T03:21:04.185Z,-40.00
2022-10-07T03:22:04.176Z,-40.00
2022-10-07T03:23:04.272Z,-40.00
2022-10-07T03:24:04.160Z,-40.00
2022-10-07T03:25:04.146Z,-40.00
2022-10-07T03:26:04.141Z,-40.00
2022-10-07T03:27:04.128Z,-40.00
2022-10-07T03:28:04.153Z,-40.00
2022-10-07T03:29:04.111Z,-40.00
2022-10-07T03:30:04.105Z,-40.00
2022-10-07T03:31:04.143Z,-40.00
2022-10-07T03:32:04.090Z,-40.00
2022-10-07T03:33:04.173Z,-40.00
2022-10-07T03:34:04.069Z,-40.00
2022-10-07T03:35:04.063Z,-40.00
2022-10-07T03:36:04.050Z,-40.00
2022-10-07T03:37:04.036Z,-40.00
2022-10-07T03:38:04.138Z,-40.00
2022-10-07T03:39:04.016Z,-40.00
2022-10-07T03:40:04.011Z,-40.00
2022-10-07T03:41:04.005Z,-40.00
2022-10-07T03:42:03.994Z,-40.00
2022-10-07T03:43:04.082Z,-40.00
2022-10-07T03:44:03.975Z,-40.00
2022-10-07T03:45:03.964Z,-40.00
2022-10-07T03:46:03.990Z,-40.00
2022-10-07T03:47:07.597Z,-40.00
2022-10-07T03:48:03.940Z,-40.00
2022-10-07T03:49:03.924Z,-40.00
2022-10-07T03:50:03.919Z,-40.00
2022-10-07T03:51:03.911Z,-40.00
2022-10-07T03:52:03.899Z,-40.00
2022-10-07T03:53:03.891Z,-40.00
2022-10-07T03:54:03.885Z,-40.00
2022-10-07T03:55:03.874Z,-40.00
2022-10-07T03:56:03.864Z,-40.00
2022-10-07T03:57:03.852Z,-40.00
2022-10-07T03:58:03.847Z,-40.00
2022-10-07T03:59:03.931Z,-40.00
2022-10-07T04:00:03.822Z,-40.00
2022-10-07T04:01:03.814Z,-40.00
2022-10-07T04:02:03.844Z,-40.00
2022-10-07T04:03:03.920Z,-40.00
2022-10-07T04:04:03.791Z,-40.00
2022-10-07T04:05:03.775Z,-40.00
2022-10-07T04:06:03.773Z,-40.00
2022-10-07T04:07:03.756Z,-40.00
2022-10-07T04:08:03.752Z,-40.00
2022-10-07T04:09:03.836Z,-40.00
2022-10-07T04:10:03.729Z,-40.00
2022-10-07T04:11:03.718Z,-40.00
2022-10-07T04:12:03.706Z,-40.00
2022-10-07T04:13:03.698Z,-40.00
2022-10-07T04:14:03.686Z,-40.00
2022-10-07T04:15:03.682Z,-40.00
2022-10-07T04:16:03.695Z,-40.00
2022-10-07T04:17:03.659Z,-40.00
2022-10-07T04:18:03.651Z,-40.00
2022-10-07T04:19:03.643Z,-40.00
2022-10-07T04:20:03.636Z,-40.00
2022-10-07T04:21:03.625Z,-40.00
2022-10-07T04:22:08.440Z,-40.00
2022-10-07T04:23:03.604Z,-40.00
2022-10-07T04:24:03.594Z,-40.00
2022-10-07T04:25:03.682Z,-40.00
2022-10-07T04:26:03.574Z,-40.00
2022-10-07T04:27:03.564Z,-40.00
2022-10-07T04:28:03.787Z,-40.00
2022-10-07T04:29:03.547Z,-40.00
2022-10-07T04:30:03.533Z,-40.00
2022-10-07T04:31:03.561Z,-40.00
2022-10-07T04:32:03.520Z,-40.00
2022-10-07T04:33:03.511Z,-40.00
2022-10-07T04:34:03.497Z,-40.00
2022-10-07T04:35:03.485Z,-40.00
2022-10-07T04:36:03.480Z,-40.00
2022-10-07T04:37:03.468Z,-40.00
2022-10-07T04:38:03.460Z,-40.00
2022-10-07T04:39:03.448Z,-40.00
2022-10-07T04:40:03.443Z,-40.00
2022-10-07T04:41:03.434Z,-40.00
2022-10-07T04:42:03.419Z,-40.00
2022-10-07T04:43:03.411Z,-40.00
2022-10-07T04:44:03.402Z,-40.00
2022-10-07T04:45:03.397Z,-40.00
2022-10-07T04:46:03.380Z,-40.00
2022-10-07T04:47:03.432Z,-40.00
2022-10-07T04:48:03.363Z,-40.00
2022-10-07T04:49:03.350Z,-40.00
2022-10-07T04:50:03.346Z,-40.00
2022-10-07T04:51:03.337Z,-40.00
2022-10-07T04:52:03.325Z,-40.00
2022-10-07T04:53:03.318Z,-40.00
2022-10-07T04:54:03.304Z,-40.00
2022-10-07T04:55:03.394Z,-40.00
2022-10-07T04:56:03.283Z,-40.00
2022-10-07T04:57:03.273Z,-40.00
2022-10-07T04:58:03.271Z,-40.00
2022-10-07T04:59:03.265Z,-40.00
2022-10-07T05:00:03.245Z,-40.00
2022-10-07T05:01:03.358Z,-40.00
2022-10-07T05:02:03.284Z,-40.00
2022-10-07T05:03:03.220Z,-40.00
2022-10-07T05:04:03.213Z,-40.00
2022-10-07T05:05:03.196Z,-40.00
2022-10-07T05:06:05.530Z,-40.00
2022-10-07T05:07:03.181Z,-40.00
2022-10-07T05:08:03.176Z,-40.00
2022-10-07T05:09:03.163Z,-40.00
2022-10-07T05:10:03.256Z,-40.00
2022-10-07T05:11:03.143Z,-40.00
2022-10-07T05:12:03.131Z,-40.00
2022-10-07T05:13:03.125Z,-40.00
2022-10-07T05:14:03.111Z,-40.00
2022-10-07T05:15:03.104Z,-40.00
2022-10-07T05:16:03.132Z,-40.00
2022-10-07T05:17:03.085Z,-40.00
2022-10-07T05:18:03.077Z,-40.00
2022-10-07T05:19:03.073Z,-40.00
2022-10-07T05:20:03.154Z,-40.00
2022-10-07T05:21:03.050Z,-40.00
2022-10-07T05:22:03.047Z,-40.00
2022-10-07T05:23:03.029Z,-40.00
2022-10-07T05:24:03.019Z,-40.00
2022-10-07T05:25:03.009Z,-40.00
2022-10-07T05:26:02.996Z,-40.00
2022-10-07T05:27:02.990Z,-40.00
2022-10-07T05:28:03.047Z,-40.00
2022-10-07T05:29:02.969Z,-40.00
2022-10-07T05:30:02.956Z,-40.00
2022-10-07T05:31:03.091Z,-40.00
2022-10-07T05:32:05.240Z,-40.00
2022-10-07T05:33:02.930Z,-40.00
2022-10-07T05:34:02.923Z,-40.00
2022-10-07T05:35:02.911Z,-40.00
2022-10-07T05:36:02.904Z,-40.00
2022-10-07T05:37:02.894Z,-40.00
2022-10-07T05:38:02.884Z,-40.00
2022-10-07T05:39:02.871Z,-40.00
2022-10-07T05:40:02.866Z,-40.00
2022-10-07T05:41:02.856Z,-40.00
2022-10-07T05:42:02.843Z,-40.00
2022-10-07T05:43:02.861Z,-40.00
2022-10-07T05:44:02.827Z,-40.00
2022-10-07T05:45:02.811Z,-40.00
2022-10-07T05:46:02.871Z,-40.00
2022-10-07T05:47:02.895Z,-40.00
2022-10-07T05:48:02.782Z,-40.00
2022-10-07T05:49:02.772Z,-40.00
2022-10-07T05:50:02.763Z,-40.00
2022-10-07T05:51:02.757Z,-40.00
2022-10-07T05:52:02.762Z,-40.00
2022-10-07T05:53:02.735Z,-40.00
2022-10-07T05:54:02.723Z,-40.00
2022-10-07T05:55:02.720Z,-40.00
2022-10-07T05:56:02.713Z,-40.00
2022-10-07T05:57:02.702Z,-40.00
2022-10-07T05:58:02.691Z,-40.00
2022-10-07T05:59:02.683Z,-40.00
2022-10-07T06:00:02.668Z,-40.00
2022-10-07T06:01:06.136Z,-40.00
2022-10-07T06:02:02.725Z,-40.00
2022-10-07T06:03:02.859Z,-40.00
2022-10-07T06:04:02.630Z,-40.00
2022-10-07T06:05:02.619Z,-40.00
2022-10-07T06:06:02.609Z,-40.00
2022-10-07T06:07:02.607Z,-40.00
2022-10-07T06:08:02.590Z,-40.00
2022-10-07T06:09:02.584Z,-40.00
2022-10-07T06:10:02.573Z,-40.00
2022-10-07T06:11:02.566Z,-40.00
2022-10-07T06:12:02.553Z,-40.00
2022-10-07T06:13:02.540Z,-40.00
2022-10-07T06:14:02.628Z,-40.00
2022-10-07T06:15:02.519Z,-40.00
2022-10-07T06:16:02.507Z,-40.00
2022-10-07T06:17:02.516Z,-40.00
2022-10-07T06:18:02.498Z,-40.00
2022-10-07T06:19:02.482Z,-40.00
2022-10-07T06:20:02.471Z,-40.00
2022-10-07T06:21:02.462Z,-40.00
2022-10-07T06:22:02.449Z,-40.00
2022-10-07T06:23:02.444Z,-40.00
2022-10-07T06:24:02.432Z,-40.00
2022-10-07T06:25:02.430Z,-40.00
2022-10-07T06:26:02.413Z,-40.00
2022-10-07T06:27:02.407Z,-40.00
2022-10-07T06:28:02.465Z,-40.00
2022-10-07T06:29:02.484Z,-40.00
2022-10-07T06:30:02.377Z,-40.00
2022-10-07T06:31:02.438Z,-40.00
2022-10-07T06:32:02.355Z,-40.00
2022-10-07T06:33:02.343Z,-40.00
2022-10-07T06:34:02.334Z,-40.00
2022-10-07T06:35:02.325Z,-40.00
2022-10-07T06:36:04.468Z,-40.00
2022-10-07T06:37:02.309Z,-40.00
2022-10-07T06:38:02.299Z,-40.00
2022-10-07T06:39:02.286Z,-40.00
2022-10-07T06:40:02.277Z,-40.00
2022-10-07T06:41:02.271Z,-40.00
2022-10-07T06:42:02.253Z,-40.00
2022-10-07T06:43:02.252Z,-40.00
2022-10-07T06:44:02.339Z,-40.00
2022-10-07T06:45:02.228Z,-40.00
2022-10-07T06:46:02.247Z,-40.00
2022-10-07T06:47:02.209Z,-40.00
2022-10-07T06:48:02.202Z,-40.00
2022-10-07T06:49:02.191Z,-40.00
2022-10-07T06:50:02.174Z,-40.00
2022-10-07T06:51:02.164Z,-40.00
2022-10-07T06:52:02.159Z,-40.00
2022-10-07T06:53:02.153Z,-40.00
2022-10-07T06:54:02.139Z,-40.00
2022-10-07T06:55:02.133Z,-40.00
2022-10-07T06:56:02.124Z,-40.00
2022-10-07T06:57:08.186Z,-40.00
2022-10-07T06:58:05.119Z,-40.00
2022-10-07T06:59:02.189Z,-40.00
2022-10-07T07:00:02.079Z,-40.00
2022-10-07T07:01:02.182Z,-40.00
2022-10-07T07:02:02.188Z,-40.00
2022-10-07T07:03:02.050Z,-40.00
2022-10-07T07:04:02.041Z,-40.00
2022-10-07T07:06:02.019Z,-40.00
2022-10-07T07:07:02.011Z,-40.00
2022-10-07T07:08:02.009Z,-40.00
2022-10-07T07:09:01.988Z,-40.00
2022-10-07T07:10:02.081Z,-40.00
2022-10-07T07:11:01.971Z,-40.00
2022-10-07T07:12:01.969Z,-40.00
2022-10-07T07:14:01.941Z,-40.00
2022-10-07T07:15:01.934Z,-40.00
2022-10-07T07:16:01.925Z,-40.00
2022-10-07T07:17:02.004Z,-40.00
2022-10-07T07:18:01.906Z,-40.00
2022-10-07T07:19:01.893Z,-40.00
2022-10-07T07:20:01.896Z,-40.00
2022-10-07T07:21:01.976Z,-40.00
2022-10-07T07:22:01.862Z,-40.00
2022-10-07T07:23:01.859Z,-40.00
2022-10-07T07:24:01.846Z,-40.00
2022-10-07T07:25:01.842Z,-40.00
2022-10-07T07:26:01.824Z,-40.00
2022-10-07T07:27:01.820Z,-40.00
2022-10-07T07:28:01.841Z,-40.00
2022-10-07T07:29:01.802Z,-40.00
2022-10-07T07:30:01.788Z,-40.00
2022-10-07T07:31:01.928Z,-40.00
2022-10-07T07:32:01.773Z,-40.00
2022-10-07T07:33:01.760Z,-40.00
2022-10-07T07:34:01.813Z,-40.00
2022-10-07T07:35:01.741Z,-40.00
2022-10-07T07:36:01.729Z,-40.00
2022-10-07T07:37:01.723Z,-40.00
2022-10-07T07:38:01.711Z,-40.00
2022-10-07T07:39:01.704Z,-40.00
2022-10-07T07:40:01.698Z,-40.00
2022-10-07T07:41:01.678Z,-40.00
2022-10-07T07:42:01.771Z,-40.00
2022-10-07T07:43:01.668Z,-40.00
2022-10-07T07:44:01.649Z,-40.00
2022-10-07T07:45:01.642Z,-40.00
2022-10-07T07:46:01.668Z,-40.00
2022-10-07T07:47:01.628Z,-40.00
2022-10-07T07:48:01.613Z,-40.00
2022-10-07T07:49:01.607Z,-40.00
2022-10-07T07:50:01.595Z,-40.00
2022-10-07T07:51:01.584Z,-40.00
2022-10-07T07:52:01.573Z,-40.00
2022-10-07T07:53:01.565Z,-40.00
2022-10-07T07:54:01.559Z,-40.00
2022-10-07T07:55:01.548Z,-40.00
2022-10-07T07:56:01.535Z,-40.00
2022-10-07T07:57:01.525Z,-40.00
2022-10-07T07:58:01.620Z,-40.00
2022-10-07T07:59:01.502Z,-40.00
2022-10-07T08:00:01.514Z,-40.00
2022-10-07T08:01:01.543Z,-40.00
2022-10-07T08:02:01.471Z,-40.00
2022-10-07T08:03:01.467Z,-40.00
2022-10-07T08:04:01.461Z,-40.00
2022-10-07T08:05:01.448Z,-40.00
2022-10-07T08:06:01.436Z,-40.00
2022-10-07T08:07:01.428Z,-40.00
2022-10-07T08:08:01.526Z,-40.00
2022-10-07T08:09:01.427Z,-40.00
2022-10-07T08:10:01.403Z,-40.00
2022-10-07T08:11:01.392Z,-40.00
2022-10-07T08:12:01.379Z,-40.00
2022-10-07T08:13:01.370Z,-40.00
2022-10-07T08:14:01.355Z,-40.00
2022-10-07T08:15:01.350Z,-40.00
2022-10-07T08:16:01.407Z,-40.00
2022-10-07T08:17:01.329Z,-40.00
2022-10-07T08:18:01.320Z,-40.00
2022-10-07T08:19:01.314Z,-40.00
2022-10-07T08:20:01.301Z,-40.00
2022-10-07T08:21:01.289Z,-40.00
2022-10-07T08:22:01.287Z,-40.00
2022-10-07T08:23:01.372Z,-40.00
2022-10-07T08:24:01.259Z,-40.00
2022-10-07T08:25:01.255Z,-40.00
2022-10-07T08:26:01.245Z,-40.00
2022-10-07T08:27:01.232Z,-40.00
2022-10-07T08:28:01.301Z,-40.00
2022-10-07T08:29:01.212Z,-40.00
2022-10-07T08:30:01.204Z,-40.00
2022-10-07T08:31:01.225Z,-40.00
2022-10-07T08:32:01.178Z,-40.00
2022-10-07T08:33:01.604Z,-40.00
2022-10-07T08:34:01.162Z,-40.00
2022-10-07T08:35:01.150Z,-40.00
2022-10-07T08:36:01.143Z,-40.00
2022-10-07T08:37:01.136Z,-40.00
2022-10-07T08:38:01.220Z,-40.00
2022-10-07T08:39:01.114Z,-40.00
2022-10-07T08:40:01.184Z,-40.00
2022-10-07T08:41:01.092Z,-40.00
2022-10-07T08:42:01.084Z,-40.00
2022-10-07T08:43:01.073Z,-40.00
2022-10-07T08:44:01.225Z,-40.00
2022-10-07T08:45:01.054Z,-40.00
2022-10-07T08:46:01.072Z,-40.00
2022-10-07T08:47:01.032Z,-40.00
2022-10-07T08:48:01.022Z,-40.00
2022-10-07T08:49:01.115Z,-40.00
2022-10-07T08:50:01.002Z,-40.00
2022-10-07T08:51:00.996Z,-40.00
2022-10-07T08:52:00.984Z,-40.00
2022-10-07T08:53:00.974Z,-40.00
2022-10-07T08:54:00.963Z,-40.00
2022-10-07T08:55:00.958Z,-40.00
2022-10-07T08:56:00.942Z,-40.00
2022-10-07T08:57:00.936Z,-40.00
2022-10-07T08:58:00.926Z,-40.00
2022-10-07T08:59:00.917Z,-40.00
2022-10-07T09:00:01.004Z,-40.00
2022-10-07T09:01:00.897Z,-40.00
2022-10-07T09:02:00.887Z,-40.00
2022-10-07T09:03:00.931Z,-40.00
2022-10-07T09:04:00.864Z,-40.00
2022-10-07T09:05:00.864Z,-40.00
2022-10-07T09:06:00.845Z,-40.00
2022-10-07T09:07:00.844Z,-40.00
2022-10-07T09:08:00.826Z,-40.00
2022-10-07T09:09:00.823Z,-40.00
2022-10-07T09:10:00.811Z,-40.00
2022-10-07T09:11:04.532Z,-40.00
2022-10-07T09:12:00.793Z,-40.00
2022-10-07T09:13:00.787Z,-40.00
2022-10-07T09:14:00.773Z,-40.00
2022-10-07T09:15:00.766Z,-40.00
2022-10-07T09:16:00.793Z,-40.00
2022-10-07T09:17:00.744Z,-40.00
2022-10-07T09:18:00.738Z,-40.00
2022-10-07T09:19:00.726Z,-40.00
2022-10-07T09:20:00.717Z,-40.00
2022-10-07T09:21:00.711Z,-40.00
2022-10-07T09:22:00.696Z,-40.00
2022-10-07T09:23:00.692Z,-40.00
2022-10-07T09:24:00.677Z,-40.00
2022-10-07T09:25:00.669Z,-40.00
2022-10-07T09:26:00.764Z,-40.00
2022-10-07T09:27:00.660Z,-40.00
2022-10-07T09:28:00.698Z,-40.00
2022-10-07T09:29:00.636Z,-40.00
2022-10-07T09:30:00.623Z,-40.00
2022-10-07T09:31:00.677Z,-40.00
2022-10-07T09:32:00.606Z,-40.00
2022-10-07T09:33:00.603Z,-40.00
2022-10-07T09:34:00.588Z,-40.00
2022-10-07T09:35:00.576Z,-40.00
2022-10-07T09:36:00.570Z,-40.00
2022-10-07T09:37:00.661Z,-40.00
2022-10-07T09:38:00.562Z,-40.00
2022-10-07T09:39:00.540Z,-40.00
2022-10-07T09:40:00.537Z,-40.00
2022-10-07T09:41:00.522Z,-40.00
2022-10-07T09:42:00.512Z,-40.00
2022-10-07T09:43:00.511Z,-40.00
2022-10-07T09:44:00.491Z,-40.00
2022-10-07T09:45:00.482Z,-40.00
2022-10-07T09:46:00.505Z,-40.00
2022-10-07T09:47:00.563Z,-40.00
2022-10-07T09:48:00.457Z,-40.00
2022-10-07T09:49:00.448Z,-40.00
2022-10-07T09:50:00.442Z,-40.00
2022-10-07T09:51:00.433Z,-40.00
2022-10-07T09:52:00.419Z,-40.00
2022-10-07T09:53:00.411Z,-40.00
2022-10-07T09:54:00.403Z,-40.00
2022-10-07T09:55:00.393Z,-40.00
2022-10-07T09:56:00.392Z,-40.00
2022-10-07T09:57:00.480Z,-40.00
2022-10-07T09:58:00.367Z,-40.00
2022-10-07T09:59:00.361Z,-40.00
2022-10-07T10:00:00.355Z,-40.00
2022-10-07T10:01:00.338Z,-40.00
2022-10-07T10:02:00.348Z,-40.00
2022-10-07T10:03:04.816Z,-40.00
2022-10-07T10:04:00.313Z,-40.00
2022-10-07T10:05:00.307Z,-40.00
2022-10-07T10:06:00.295Z,-40.00
2022-10-07T10:07:00.282Z,-40.00
2022-10-07T10:08:00.276Z,-40.00
2022-10-07T10:09:00.264Z,-40.00
2022-10-07T10:10:00.261Z,-40.00
2022-10-07T10:11:00.249Z,-40.00
2022-10-07T10:12:00.342Z,-40.00
2022-10-07T10:13:00.231Z,-40.00
2022-10-07T10:14:00.216Z,-40.00
2022-10-07T10:15:00.215Z,-40.00
2022-10-07T10:16:00.248Z,-40.00
2022-10-07T10:17:00.191Z,-40.00
2022-10-07T10:18:00.189Z,-40.00
2022-10-07T10:19:00.179Z,-40.00
2022-10-07T10:20:00.165Z,-40.00
2022-10-07T10:21:00.155Z,-40.00
2022-10-07T10:22:00.146Z,-40.00
2022-10-07T10:23:00.238Z,-40.00
2022-10-07T10:24:00.135Z,-40.00
2022-10-07T10:25:00.119Z,-40.00
2022-10-07T10:26:00.110Z,-40.00
2022-10-07T10:27:00.107Z,-40.00
2022-10-07T10:28:00.189Z,-40.00
2022-10-07T10:29:00.082Z,-40.00
2022-10-07T10:30:00.081Z,-40.00
2022-10-07T10:31:00.307Z,-40.00
2022-10-07T10:32:00.057Z,-40.00
2022-10-07T10:33:00.048Z,-40.00
2022-10-07T10:34:00.034Z,-40.00
2022-10-07T10:35:00.029Z,-40.00
2022-10-07T10:36:00.019Z,-40.00
2022-10-07T10:37:00.006Z,-40.00
2022-10-07T10:38:00.009Z,-40.00
2022-10-07T10:38:59.989Z,-40.00
2022-10-07T10:39:59.981Z,-40.00
2022-10-07T10:40:59.975Z,-40.00
2022-10-07T10:41:59.970Z,-40.00
2022-10-07T10:42:59.959Z,-40.00
2022-10-07T10:43:59.954Z,-40.00
2022-10-07T10:44:59.941Z,-40.00
2022-10-07T10:45:59.926Z,-40.00
2022-10-07T10:47:00.001Z,-40.00
2022-10-07T10:47:59.911Z,-40.00
2022-10-07T10:48:59.905Z,-40.00
2022-10-07T10:49:59.895Z,-40.00
2022-10-07T10:50:59.887Z,-40.00
2022-10-07T10:51:59.877Z,-40.00
2022-10-07T10:52:59.867Z,-40.00
2022-10-07T10:53:59.863Z,-40.00
2022-10-07T10:54:59.852Z,-40.00
2022-10-07T10:55:59.844Z,-40.00
2022-10-07T10:56:59.831Z,-40.00
2022-10-07T10:58:00.832Z,-40.00
2022-10-07T10:58:59.811Z,-40.00
2022-10-07T10:59:59.811Z,-40.00
2022-10-07T11:00:59.968Z,-40.00
2022-10-07T11:01:59.815Z,-40.00
2022-10-07T11:02:59.822Z,-40.00
2022-10-07T11:03:59.770Z,-40.00
2022-10-07T11:04:59.765Z,-40.00
2022-10-07T11:05:59.755Z,-40.00
2022-10-07T11:06:59.742Z,-40.00
2022-10-07T11:08:01.758Z,-40.00
2022-10-07T11:08:59.727Z,-40.00
2022-10-07T11:09:59.724Z,-40.00
2022-10-07T11:10:59.718Z,-40.00
2022-10-07T11:11:59.707Z,-40.00
2022-10-07T11:12:59.692Z,-40.00
2022-10-07T11:13:59.685Z,-40.00
2022-10-07T11:14:59.675Z,-40.00
2022-10-07T11:15:59.703Z,-40.00
2022-10-07T11:16:59.659Z,-40.00
2022-10-07T11:17:59.652Z,-40.00
2022-10-07T11:18:59.643Z,-40.00
2022-10-07T11:20:00.488Z,-40.00
2022-10-07T11:20:59.625Z,-40.00
2022-10-07T11:21:59.616Z,-40.00
2022-10-07T11:22:59.611Z,-40.00
2022-10-07T11:23:59.602Z,-40.00
2022-10-07T11:24:59.595Z,-40.00
2022-10-07T11:25:59.585Z,-40.00
2022-10-07T11:26:59.572Z,-40.00
2022-10-07T11:27:59.604Z,-40.00
2022-10-07T11:28:59.561Z,-40.00
2022-10-07T11:29:59.553Z,-40.00
2022-10-07T11:30:59.647Z,-40.00
2022-10-07T11:31:59.539Z,-40.00
2022-10-07T11:32:59.540Z,-40.00
2022-10-07T11:33:59.517Z,-40.00
2022-10-07T11:34:59.513Z,-40.00
2022-10-07T11:35:59.501Z,-40.00
2022-10-07T11:36:59.495Z,-40.00
2022-10-07T11:37:59.486Z,-40.00
2022-10-07T11:38:59.478Z,-40.00
2022-10-07T11:39:59.472Z,-40.00
2022-10-07T11:40:59.465Z,-40.00
2022-10-07T11:41:59.458Z,-40.00
2022-10-07T11:42:59.447Z,-40.00
2022-10-07T11:43:59.438Z,-40.00
2022-10-07T11:44:59.427Z,-40.00
2022-10-07T11:45:59.425Z,-40.00
2022-10-07T11:46:59.474Z,-40.00
2022-10-07T11:47:59.406Z,-40.00
2022-10-07T11:48:59.398Z,-40.00
2022-10-07T11:49:59.389Z,-40.00
2022-10-07T11:50:59.385Z,-40.00
2022-10-07T11:51:59.376Z,-40.00
2022-10-07T11:52:59.365Z,-40.00
2022-10-07T11:53:59.360Z,-40.00
2022-10-07T11:54:59.352Z,-40.00
2022-10-07T11:55:59.445Z,-40.00
2022-10-07T11:56:59.337Z,-40.00
2022-10-07T11:57:59.325Z,-40.00
2022-10-07T11:58:59.317Z,-40.00
2022-10-07T11:59:59.313Z,-40.00
2022-10-07T12:00:59.297Z,-40.00
2022-10-07T12:01:59.311Z,-40.00
2022-10-07T12:02:59.328Z,-40.00
2022-10-07T12:03:59.279Z,-40.00
2022-10-07T12:04:59.267Z,-40.00
2022-10-07T12:05:59.370Z,-40.00
2022-10-07T12:06:59.254Z,-40.00
2022-10-07T12:07:59.246Z,-40.00
2022-10-07T12:08:59.230Z,-40.00
2022-10-07T12:09:59.231Z,-40.00
2022-10-07T12:10:59.222Z,-40.00
2022-10-07T12:11:59.212Z,-40.00
2022-10-07T12:12:59.206Z,-40.00
2022-10-07T12:13:59.199Z,-40.00
2022-10-07T12:14:59.184Z,-40.00
2022-10-07T12:15:59.223Z,-40.00
2022-10-07T12:16:59.265Z,-40.00
2022-10-07T12:17:59.166Z,-40.00
2022-10-07T12:18:59.152Z,-40.00
2022-10-07T12:19:59.162Z,-40.00
2022-10-07T12:20:59.140Z,-40.00
2022-10-07T12:21:59.130Z,-40.00
2022-10-07T12:22:59.121Z,-40.00
2022-10-07T12:23:59.112Z,-40.00
2022-10-07T12:24:59.102Z,-40.00
2022-10-07T12:25:59.099Z,-40.00
2022-10-07T12:26:59.092Z,-40.00
2022-10-07T12:27:59.125Z,-40.00
2022-10-07T12:28:59.079Z,-40.00
2022-10-07T12:29:59.111Z,-40.00
2022-10-07T12:30:59.062Z,-40.00
2022-10-07T12:31:59.093Z,-40.00
2022-10-07T12:32:59.043Z,-40.00
2022-10-07T12:33:59.036Z,-40.00
2022-10-07T12:34:59.030Z,-40.00